sensor_id;sensor_type;location;lat;lon;timestamp;pressure;altitude;pressure_sealevel;temperature;humidity
62152;BME280;48139;47.474;19.034;2023-02-21T05:00:14;100312.38;;;10.46;77.05
62152;BME280;48139;47.474;19.034;2023-02-21T05:03:18;100312.38;;;10.46;77.05
62152;BME280;48139;47.474;19.034;2023-02-21T05:06:22;100304.72;;;10.04;77.87
62152;BME280;48139;47.474;19.034;2023-02-21T05:09:25;100307.91;;;10.10;77.66
62152;BME280;48139;47.474;19.034;2023-02-21T05:12:28;100307.50;;;10.20;77.01
62152;BME280;48139;47.474;19.034;2023-02-21T05:15:30;100303.44;;;10.12;77.96
62152;BME280;48139;47.474;19.034;2023-02-21T05:18:33;100301.53;;;10.16;78.15
62152;BME280;48139;47.474;19.034;2023-02-21T05:21:36;100311.28;;;10.12;78.57
62152;BME280;48139;47.474;19.034;2023-02-21T05:24:41;100299.91;;;10.13;78.35
62152;BME280;48139;47.474;19.034;2023-02-21T05:27:49;100315.59;;;10.13;78.52
62152;BME280;48139;47.474;19.034;2023-02-21T05:30:52;100310.38;;;10.13;78.67
62152;BME280;48139;47.474;19.034;2023-02-21T05:33:55;100314.41;;;10.02;79.87
62152;BME280;48139;47.474;19.034;2023-02-21T05:36:58;100312.00;;;9.97;79.65
62152;BME280;48139;47.474;19.034;2023-02-21T05:40:01;100302.75;;;10.09;77.90
62152;BME280;48139;47.474;19.034;2023-02-21T05:43:06;100294.66;;;10.13;77.08
62152;BME280;48139;47.474;19.034;2023-02-21T05:46:28;100293.81;;;10.13;77.09
62152;BME280;48139;47.474;19.034;2023-02-21T05:49:32;100289.25;;;10.18;76.58
62152;BME280;48139;47.474;19.034;2023-02-21T05:52:35;100281.66;;;10.12;76.37
62152;BME280;48139;47.474;19.034;2023-02-21T05:55:37;100301.66;;;10.13;75.82
62152;BME280;48139;47.474;19.034;2023-02-21T05:58:41;100302.13;;;10.04;77.17
62152;BME280;48139;47.474;19.034;2023-02-21T06:01:44;100302.13;;;10.04;76.81
62152;BME280;48139;47.474;19.034;2023-02-21T06:04:47;100287.38;;;10.01;77.22
62152;BME280;48139;47.474;19.034;2023-02-21T06:07:50;100309.09;;;10.03;76.95
62152;BME280;48139;47.474;19.034;2023-02-21T06:10:53;100311.78;;;10.02;76.94
62152;BME280;48139;47.474;19.034;2023-02-21T06:13:57;100301.03;;;10.08;77.14
62152;BME280;48139;47.474;19.034;2023-02-21T06:17:00;100315.50;;;10.17;76.42
62152;BME280;48139;47.474;19.034;2023-02-21T06:20:04;100314.44;;;10.21;76.72
62152;BME280;48139;47.474;19.034;2023-02-21T06:23:09;100310.91;;;10.22;76.33
62152;BME280;48139;47.474;19.034;2023-02-21T06:26:13;100306.75;;;10.36;75.34
62152;BME280;48139;47.474;19.034;2023-02-21T06:29:16;100318.53;;;10.26;76.75
62152;BME280;48139;47.474;19.034;2023-02-21T06:32:18;100312.81;;;10.18;77.12
62152;BME280;48139;47.474;19.034;2023-02-21T06:35:21;100314.78;;;10.32;76.79
62152;BME280;48139;47.474;19.034;2023-02-21T06:38:24;100322.28;;;10.39;76.82
62152;BME280;48139;47.474;19.034;2023-02-21T06:41:29;100308.28;;;10.40;76.92
62152;BME280;48139;47.474;19.034;2023-02-21T06:44:32;100331.00;;;10.40;76.76
62152;BME280;48139;47.474;19.034;2023-02-21T06:47:35;100329.16;;;10.61;75.50
62152;BME280;48139;47.474;19.034;2023-02-21T06:50:38;100338.00;;;10.58;76.83
62152;BME280;48139;47.474;19.034;2023-02-21T06:53:41;100330.12;;;10.58;76.18
62152;BME280;48139;47.474;19.034;2023-02-21T06:56:44;100342.44;;;10.56;77.50
62152;BME280;48139;47.474;19.034;2023-02-21T06:59:47;100336.72;;;10.67;76.87
62152;BME280;48139;47.474;19.034;2023-02-21T07:02:49;100333.75;;;10.74;76.84
62152;BME280;48139;47.474;19.034;2023-02-21T07:05:52;100348.38;;;10.78;77.17
62152;BME280;48139;47.474;19.034;2023-02-21T07:08:55;100340.34;;;10.81;77.12
62152;BME280;48139;47.474;19.034;2023-02-21T07:11:57;100338.16;;;10.91;77.07
62152;BME280;48139;47.474;19.034;2023-02-21T07:15:00;100335.78;;;11.04;73.29
62152;BME280;48139;47.474;19.034;2023-02-21T07:18:03;100351.34;;;11.07;73.13
62152;BME280;48139;47.474;19.034;2023-02-21T07:21:08;100346.44;;;11.18;71.06
62152;BME280;48139;47.474;19.034;2023-02-21T07:24:13;100352.19;;;11.24;70.66
62152;BME280;48139;47.474;19.034;2023-02-21T07:27:15;100351.81;;;11.32;69.87
62152;BME280;48139;47.474;19.034;2023-02-21T07:30:19;100348.56;;;11.44;68.54
62152;BME280;48139;47.474;19.034;2023-02-21T07:33:21;100356.31;;;11.47;67.15
62152;BME280;48139;47.474;19.034;2023-02-21T07:36:24;100361.16;;;11.55;66.42
62152;BME280;48139;47.474;19.034;2023-02-21T07:39:27;100362.69;;;11.59;67.81
62152;BME280;48139;47.474;19.034;2023-02-21T07:42:30;100358.59;;;11.70;66.91
62152;BME280;48139;47.474;19.034;2023-02-21T07:45:32;100351.56;;;11.71;67.61
62152;BME280;48139;47.474;19.034;2023-02-21T07:48:36;100349.25;;;11.82;66.29
62152;BME280;48139;47.474;19.034;2023-02-21T07:51:38;100352.09;;;11.95;66.61
62152;BME280;48139;47.474;19.034;2023-02-21T07:54:41;100352.69;;;12.00;66.90
62152;BME280;48139;47.474;19.034;2023-02-21T07:57:44;100351.38;;;12.08;65.43
62152;BME280;48139;47.474;19.034;2023-02-21T08:00:47;100353.84;;;12.11;65.96
62152;BME280;48139;47.474;19.034;2023-02-21T08:03:50;100351.63;;;12.20;64.84
62152;BME280;48139;47.474;19.034;2023-02-21T08:06:58;100344.53;;;12.22;65.75
62152;BME280;48139;47.474;19.034;2023-02-21T08:10:03;100342.94;;;12.35;64.85
62152;BME280;48139;47.474;19.034;2023-02-21T08:13:06;100354.09;;;13.01;62.51
62152;BME280;48139;47.474;19.034;2023-02-21T08:16:09;100347.28;;;14.29;55.92
62152;BME280;48139;47.474;19.034;2023-02-21T08:19:11;100338.22;;;15.80;51.33
62152;BME280;48139;47.474;19.034;2023-02-21T08:22:14;100347.50;;;16.24;48.87
62152;BME280;48139;47.474;19.034;2023-02-21T08:25:17;100345.00;;;17.06;46.22
62152;BME280;48139;47.474;19.034;2023-02-21T08:28:19;100364.31;;;16.23;47.95
62152;BME280;48139;47.474;19.034;2023-02-21T08:31:22;100350.59;;;15.80;48.71
62152;BME280;48139;47.474;19.034;2023-02-21T08:34:25;100350.50;;;16.92;46.98
62152;BME280;48139;47.474;19.034;2023-02-21T08:37:32;100354.56;;;17.90;44.19
62152;BME280;48139;47.474;19.034;2023-02-21T08:40:38;100340.34;;;19.01;41.02
62152;BME280;48139;47.474;19.034;2023-02-21T08:43:41;100343.06;;;19.42;40.15
62152;BME280;48139;47.474;19.034;2023-02-21T08:46:43;100359.03;;;18.34;42.16
62152;BME280;48139;47.474;19.034;2023-02-21T08:49:47;100363.34;;;18.79;41.26
62152;BME280;48139;47.474;19.034;2023-02-21T08:52:50;100361.34;;;20.28;38.89
62152;BME280;48139;47.474;19.034;2023-02-21T08:55:53;100352.53;;;18.04;43.51
62152;BME280;48139;47.474;19.034;2023-02-21T08:58:56;100345.25;;;18.51;42.30
62152;BME280;48139;47.474;19.034;2023-02-21T09:01:59;100347.06;;;18.50;42.65
62152;BME280;48139;47.474;19.034;2023-02-21T09:05:03;100349.19;;;19.43;40.82
62152;BME280;48139;47.474;19.034;2023-02-21T09:08:05;100346.81;;;19.81;39.70
62152;BME280;48139;47.474;19.034;2023-02-21T09:11:11;100354.50;;;20.75;38.15
62152;BME280;48139;47.474;19.034;2023-02-21T09:14:15;100346.63;;;22.73;33.95
62152;BME280;48139;47.474;19.034;2023-02-21T09:17:18;100341.47;;;22.34;33.90
62152;BME280;48139;47.474;19.034;2023-02-21T09:20:24;100343.06;;;21.13;36.28
62152;BME280;48139;47.474;19.034;2023-02-21T09:23:28;100337.09;;;19.29;39.41
62152;BME280;48139;47.474;19.034;2023-02-21T09:26:31;100336.84;;;17.09;44.96
62152;BME280;48139;47.474;19.034;2023-02-21T09:29:35;100337.91;;;15.85;49.23
62152;BME280;48139;47.474;19.034;2023-02-21T09:32:48;100326.50;;;15.32;51.19
62152;BME280;48139;47.474;19.034;2023-02-21T09:35:51;100329.50;;;15.01;54.10
62152;BME280;48139;47.474;19.034;2023-02-21T09:38:55;100337.03;;;14.80;54.21
62152;BME280;48139;47.474;19.034;2023-02-21T09:42:00;100345.84;;;14.52;55.80
62152;BME280;48139;47.474;19.034;2023-02-21T09:45:03;100337.97;;;14.38;56.63
62152;BME280;48139;47.474;19.034;2023-02-21T09:48:15;100345.03;;;14.23;58.25
62152;BME280;48139;47.474;19.034;2023-02-21T09:51:19;100348.41;;;14.25;60.84
62152;BME280;48139;47.474;19.034;2023-02-21T09:54:31;100334.94;;;14.44;58.36
62152;BME280;48139;47.474;19.034;2023-02-21T09:57:35;100341.91;;;14.59;59.90
62152;BME280;48139;47.474;19.034;2023-02-21T10:00:39;100336.31;;;14.64;58.22
62152;BME280;48139;47.474;19.034;2023-02-21T10:03:44;100333.28;;;14.70;58.32
62152;BME280;48139;47.474;19.034;2023-02-21T10:06:56;100343.78;;;14.57;58.78
62152;BME280;48139;47.474;19.034;2023-02-21T10:10:10;100337.19;;;14.50;58.28
62152;BME280;48139;47.474;19.034;2023-02-21T10:16:43;100342.59;;;14.48;59.55
62152;BME280;48139;47.474;19.034;2023-02-21T10:19:53;100342.31;;;14.39;59.00
62152;BME280;48139;47.474;19.034;2023-02-21T10:23:20;100346.91;;;14.35;60.95
62152;BME280;48139;47.474;19.034;2023-02-21T10:26:28;100349.81;;;14.45;60.27
62152;BME280;48139;47.474;19.034;2023-02-21T10:29:50;100341.81;;;14.46;60.57
62152;BME280;48139;47.474;19.034;2023-02-21T10:32:54;100323.47;;;14.45;59.64
62152;BME280;48139;47.474;19.034;2023-02-21T10:35:57;100329.59;;;14.45;60.68
62152;BME280;48139;47.474;19.034;2023-02-21T10:39:09;100325.13;;;14.60;61.29
62152;BME280;48139;47.474;19.034;2023-02-21T10:42:42;100331.00;;;14.78;60.00
62152;BME280;48139;47.474;19.034;2023-02-21T10:49:24;100338.72;;;14.54;61.59
62152;BME280;48139;47.474;19.034;2023-02-21T10:52:36;100325.63;;;14.52;62.48
62152;BME280;48139;47.474;19.034;2023-02-21T10:55:39;100334.06;;;14.58;61.01
62152;BME280;48139;47.474;19.034;2023-02-21T10:58:52;100335.16;;;14.41;61.41
62152;BME280;48139;47.474;19.034;2023-02-21T11:01:57;100325.63;;;14.38;62.12
62152;BME280;48139;47.474;19.034;2023-02-21T11:05:15;100333.47;;;14.40;61.60
62152;BME280;48139;47.474;19.034;2023-02-21T11:11:39;100329.94;;;14.68;59.94
62152;BME280;48139;47.474;19.034;2023-02-21T11:18:14;100330.69;;;14.56;60.42
62152;BME280;48139;47.474;19.034;2023-02-21T11:21:18;100325.31;;;14.57;60.97
62152;BME280;48139;47.474;19.034;2023-02-21T11:24:21;100318.94;;;14.47;61.77
62152;BME280;48139;47.474;19.034;2023-02-21T11:27:24;100310.19;;;14.46;61.21
62152;BME280;48139;47.474;19.034;2023-02-21T11:30:31;100302.44;;;14.58;61.61
62152;BME280;48139;47.474;19.034;2023-02-21T11:33:40;100289.53;;;14.67;61.67
62152;BME280;48139;47.474;19.034;2023-02-21T11:36:45;100294.53;;;14.84;59.96
62152;BME280;48139;47.474;19.034;2023-02-21T11:39:51;100294.53;;;14.84;59.36
62152;BME280;48139;47.474;19.034;2023-02-21T11:43:18;100296.91;;;14.75;60.69
62152;BME280;48139;47.474;19.034;2023-02-21T11:46:32;100294.00;;;14.79;61.84
62152;BME280;48139;47.474;19.034;2023-02-21T11:59:29;100283.97;;;15.37;60.90
62152;BME280;48139;47.474;19.034;2023-02-21T12:12:48;100285.91;;;15.47;60.16
62152;BME280;48139;47.474;19.034;2023-02-21T12:16:05;100281.31;;;15.37;58.88
62152;BME280;48139;47.474;19.034;2023-02-21T12:23:11;100290.63;;;15.29;60.29
62152;BME280;48139;47.474;19.034;2023-02-21T12:26:29;100284.50;;;15.16;60.97
62152;BME280;48139;47.474;19.034;2023-02-21T12:40:26;100274.66;;;15.31;61.72
62152;BME280;48139;47.474;19.034;2023-02-21T12:47:04;100276.12;;;14.97;63.94
62152;BME280;48139;47.474;19.034;2023-02-21T12:50:15;100280.44;;;14.98;65.34
62152;BME280;48139;47.474;19.034;2023-02-21T12:53:49;100270.75;;;14.99;62.70
62152;BME280;48139;47.474;19.034;2023-02-21T12:57:03;100277.28;;;15.06;63.67
62152;BME280;48139;47.474;19.034;2023-02-21T13:00:17;100283.22;;;15.09;63.21
62152;BME280;48139;47.474;19.034;2023-02-21T13:03:44;100273.09;;;15.28;64.02
62152;BME280;48139;47.474;19.034;2023-02-21T13:07:03;100282.56;;;15.18;61.54
62152;BME280;48139;47.474;19.034;2023-02-21T13:10:19;100285.31;;;15.04;61.76
62152;BME280;48139;47.474;19.034;2023-02-21T13:13:29;100277.06;;;14.96;63.00
62152;BME280;48139;47.474;19.034;2023-02-21T13:16:35;100287.38;;;14.99;63.04
62152;BME280;48139;47.474;19.034;2023-02-21T13:22:47;100291.63;;;15.02;62.99
62152;BME280;48139;47.474;19.034;2023-02-21T13:29:18;100293.63;;;14.98;63.38
62152;BME280;48139;47.474;19.034;2023-02-21T13:32:23;100278.53;;;15.00;62.73
62152;BME280;48139;47.474;19.034;2023-02-21T13:35:31;100285.06;;;14.94;63.28
62152;BME280;48139;47.474;19.034;2023-02-21T13:38:34;100279.06;;;14.92;61.76
62152;BME280;48139;47.474;19.034;2023-02-21T13:41:44;100269.72;;;14.87;63.28
62152;BME280;48139;47.474;19.034;2023-02-21T13:48:24;100274.16;;;14.74;63.49
62152;BME280;48139;47.474;19.034;2023-02-21T13:51:49;100271.13;;;14.80;64.04
62152;BME280;48139;47.474;19.034;2023-02-21T13:55:19;100265.19;;;14.76;64.67
62152;BME280;48139;47.474;19.034;2023-02-21T13:58:39;100270.66;;;14.73;62.77
62152;BME280;48139;47.474;19.034;2023-02-21T14:01:42;100273.19;;;14.75;64.81
62152;BME280;48139;47.474;19.034;2023-02-21T14:04:58;100256.50;;;14.74;63.81
62152;BME280;48139;47.474;19.034;2023-02-21T14:08:03;100269.19;;;14.82;65.07
62152;BME280;48139;47.474;19.034;2023-02-21T14:14:26;100267.59;;;14.67;64.93
62152;BME280;48139;47.474;19.034;2023-02-21T14:17:31;100282.47;;;14.68;64.32
62152;BME280;48139;47.474;19.034;2023-02-21T14:20:34;100282.59;;;14.52;64.76
62152;BME280;48139;47.474;19.034;2023-02-21T14:23:45;100271.88;;;14.55;64.78
62152;BME280;48139;47.474;19.034;2023-02-21T14:33:21;100270.41;;;14.64;64.52
62152;BME280;48139;47.474;19.034;2023-02-21T14:36:27;100264.91;;;14.54;66.25
62152;BME280;48139;47.474;19.034;2023-02-21T14:39:34;100265.84;;;14.53;65.75
62152;BME280;48139;47.474;19.034;2023-02-21T14:42:52;100268.56;;;14.51;65.63
62152;BME280;48139;47.474;19.034;2023-02-21T14:52:28;100276.22;;;14.28;66.28
62152;BME280;48139;47.474;19.034;2023-02-21T15:02:40;100277.78;;;14.03;67.06
62152;BME280;48139;47.474;19.034;2023-02-21T15:05:57;100274.91;;;14.21;65.41
62152;BME280;48139;47.474;19.034;2023-02-21T15:09:18;100270.53;;;14.07;65.50
62152;BME280;48139;47.474;19.034;2023-02-21T15:12:21;100271.66;;;14.03;65.80
62152;BME280;48139;47.474;19.034;2023-02-21T15:15:37;100273.63;;;13.99;67.20
62152;BME280;48139;47.474;19.034;2023-02-21T15:18:56;100276.09;;;14.02;65.52
62152;BME280;48139;47.474;19.034;2023-02-21T15:25:22;100291.97;;;13.87;66.79
62152;BME280;48139;47.474;19.034;2023-02-21T15:28:30;100280.13;;;13.94;65.44
62152;BME280;48139;47.474;19.034;2023-02-21T15:31:54;100273.38;;;13.90;66.55
62152;BME280;48139;47.474;19.034;2023-02-21T15:34:58;100294.25;;;13.93;66.24
62152;BME280;48139;47.474;19.034;2023-02-21T15:38:03;100291.06;;;13.73;67.90
62152;BME280;48139;47.474;19.034;2023-02-21T15:41:14;100276.09;;;13.60;68.12
62152;BME280;48139;47.474;19.034;2023-02-21T15:44:39;100286.81;;;13.57;68.37
62152;BME280;48139;47.474;19.034;2023-02-21T15:47:43;100287.25;;;13.49;69.81
62152;BME280;48139;47.474;19.034;2023-02-21T15:50:51;100291.22;;;13.42;70.14
62152;BME280;48139;47.474;19.034;2023-02-21T15:54:08;100299.66;;;13.33;70.68
62152;BME280;48139;47.474;19.034;2023-02-21T15:57:21;100301.87;;;13.25;70.75
62152;BME280;48139;47.474;19.034;2023-02-21T16:00:31;100310.03;;;13.20;72.67
62152;BME280;48139;47.474;19.034;2023-02-21T16:03:39;100309.09;;;13.06;72.66
62152;BME280;48139;47.474;19.034;2023-02-21T16:06:53;100311.09;;;13.02;73.65
62152;BME280;48139;47.474;19.034;2023-02-21T16:10:00;100316.41;;;13.01;74.16
62152;BME280;48139;47.474;19.034;2023-02-21T16:13:04;100314.84;;;12.98;73.76
62152;BME280;48139;47.474;19.034;2023-02-21T16:16:07;100317.63;;;12.95;72.63
62152;BME280;48139;47.474;19.034;2023-02-21T16:19:10;100319.19;;;12.83;74.25
62152;BME280;48139;47.474;19.034;2023-02-21T16:22:34;100323.44;;;12.70;75.42
62152;BME280;48139;47.474;19.034;2023-02-21T16:29:13;100329.63;;;12.69;75.22
62152;BME280;48139;47.474;19.034;2023-02-21T16:32:18;100331.50;;;12.67;74.80
62152;BME280;48139;47.474;19.034;2023-02-21T16:35:24;100323.34;;;12.56;75.15
62152;BME280;48139;47.474;19.034;2023-02-21T16:38:26;100334.97;;;12.52;75.51
62152;BME280;48139;47.474;19.034;2023-02-21T16:41:30;100335.56;;;12.57;75.65
62152;BME280;48139;47.474;19.034;2023-02-21T16:44:32;100344.47;;;12.55;75.95
62152;BME280;48139;47.474;19.034;2023-02-21T16:47:35;100340.59;;;12.62;75.21
